sensor_id;sensor_type;location;lat;lon;timestamp;temperature;humidity
31369;DHT22;18004;48.416;10.066;2023-03-03T00:02:09;1.90;99.90
31369;DHT22;18004;48.416;10.066;2023-03-03T00:04:35;2.00;99.90
31369;DHT22;18004;48.416;10.066;2023-03-03T00:07:01;2.00;99.90
31369;DHT22;18004;48.416;10.066;2023-03-03T00:09:26;2.00;99.90
31369;DHT22;18004;48.416;10.066;2023-03-03T00:12:16;2.00;99.90
31369;DHT22;18004;48.416;10.066;2023-03-03T00:14:42;2.10;99.90
31369;DHT22;18004;48.416;10.066;2023-03-03T00:17:26;2.10;99.90
31369;DHT22;18004;48.416;10.066;2023-03-03T00:19:53;2.00;99.90
31369;DHT22;18004;48.416;10.066;2023-03-03T00:22:29;2.00;99.90
31369;DHT22;18004;48.416;10.066;2023-03-03T00:24:59;2.00;99.90
31369;DHT22;18004;48.416;10.066;2023-03-03T00:27:29;2.00;99.90
31369;DHT22;18004;48.416;10.066;2023-03-03T00:29:59;2.10;99.90
31369;DHT22;18004;48.416;10.066;2023-03-03T00:32:46;2.10;99.90
31369;DHT22;18004;48.416;10.066;2023-03-03T00:35:27;2.00;99.90
31369;DHT22;18004;48.416;10.066;2023-03-03T00:37:58;2.10;99.90
31369;DHT22;18004;48.416;10.066;2023-03-03T00:40:34;2.10;99.90
31369;DHT22;18004;48.416;10.066;2023-03-03T00:43:01;2.00;99.90
31369;DHT22;18004;48.416;10.066;2023-03-03T00:45:30;2.00;99.90
31369;DHT22;18004;48.416;10.066;2023-03-03T00:47:56;2.00;99.90
31369;DHT22;18004;48.416;10.066;2023-03-03T00:53:10;2.10;99.90
31369;DHT22;18004;48.416;10.066;2023-03-03T00:55:36;2.10;99.90
31369;DHT22;18004;48.416;10.066;2023-03-03T00:58:02;2.10;99.90
31369;DHT22;18004;48.416;10.066;2023-03-03T01:00:28;2.10;99.90
31369;DHT22;18004;48.416;10.066;2023-03-03T01:02:54;2.10;99.90
31369;DHT22;18004;48.416;10.066;2023-03-03T01:05:20;2.10;99.90
31369;DHT22;18004;48.416;10.066;2023-03-03T01:07:46;2.10;99.90
31369;DHT22;18004;48.416;10.066;2023-03-03T01:10:12;2.20;99.90
31369;DHT22;18004;48.416;10.066;2023-03-03T01:12:38;2.20;99.90
31369;DHT22;18004;48.416;10.066;2023-03-03T01:15:06;2.10;99.90
31369;DHT22;18004;48.416;10.066;2023-03-03T01:17:32;2.10;99.90
31369;DHT22;18004;48.416;10.066;2023-03-03T01:19:59;2.10;99.90
31369;DHT22;18004;48.416;10.066;2023-03-03T01:22:25;2.00;99.90
31369;DHT22;18004;48.416;10.066;2023-03-03T01:24:51;2.10;99.90
31369;DHT22;18004;48.416;10.066;2023-03-03T01:27:17;2.10;99.90
31369;DHT22;18004;48.416;10.066;2023-03-03T01:29:43;2.10;99.90
31369;DHT22;18004;48.416;10.066;2023-03-03T01:32:08;2.20;99.90
31369;DHT22;18004;48.416;10.066;2023-03-03T01:34:34;2.20;99.90
31369;DHT22;18004;48.416;10.066;2023-03-03T01:37:00;2.20;99.90
31369;DHT22;18004;48.416;10.066;2023-03-03T01:39:26;2.10;99.90
31369;DHT22;18004;48.416;10.066;2023-03-03T01:41:51;2.20;99.90
31369;DHT22;18004;48.416;10.066;2023-03-03T01:44:17;2.10;99.90
31369;DHT22;18004;48.416;10.066;2023-03-03T01:47:31;2.10;99.90
31369;DHT22;18004;48.416;10.066;2023-03-03T01:52:24;2.20;99.90
31369;DHT22;18004;48.416;10.066;2023-03-03T01:55:05;2.20;99.90
31369;DHT22;18004;48.416;10.066;2023-03-03T01:57:38;2.20;99.90
31369;DHT22;18004;48.416;10.066;2023-03-03T02:00:08;2.10;99.90
31369;DHT22;18004;48.416;10.066;2023-03-03T02:02:35;2.10;99.90
31369;DHT22;18004;48.416;10.066;2023-03-03T02:05:01;2.20;99.90
31369;DHT22;18004;48.416;10.066;2023-03-03T02:07:29;2.20;99.90
31369;DHT22;18004;48.416;10.066;2023-03-03T02:10:14;2.20;99.90
31369;DHT22;18004;48.416;10.066;2023-03-03T02:12:43;2.20;99.90
31369;DHT22;18004;48.416;10.066;2023-03-03T02:18:15;2.20;99.90
31369;DHT22;18004;48.416;10.066;2023-03-03T02:28:29;2.20;99.90
31369;DHT22;18004;48.416;10.066;2023-03-03T02:30:57;2.20;99.90
31369;DHT22;18004;48.416;10.066;2023-03-03T02:33:24;2.20;99.90
31369;DHT22;18004;48.416;10.066;2023-03-03T02:35:50;2.30;99.90
31369;DHT22;18004;48.416;10.066;2023-03-03T02:43:58;2.30;99.90
31369;DHT22;18004;48.416;10.066;2023-03-03T02:46:24;2.30;99.90
31369;DHT22;18004;48.416;10.066;2023-03-03T02:48:50;2.30;99.90
31369;DHT22;18004;48.416;10.066;2023-03-03T02:51:16;2.30;99.90
31369;DHT22;18004;48.416;10.066;2023-03-03T02:53:42;2.30;99.90
31369;DHT22;18004;48.416;10.066;2023-03-03T02:56:07;2.30;99.90
31369;DHT22;18004;48.416;10.066;2023-03-03T02:58:35;2.40;99.90
31369;DHT22;18004;48.416;10.066;2023-03-03T03:01:01;2.30;99.90
31369;DHT22;18004;48.416;10.066;2023-03-03T03:03:26;2.40;99.90
31369;DHT22;18004;48.416;10.066;2023-03-03T03:05:52;2.30;99.90
31369;DHT22;18004;48.416;10.066;2023-03-03T03:08:18;2.40;99.90
31369;DHT22;18004;48.416;10.066;2023-03-03T03:10:44;2.40;99.90
31369;DHT22;18004;48.416;10.066;2023-03-03T03:13:09;2.30;99.90
31369;DHT22;18004;48.416;10.066;2023-03-03T03:15:36;2.30;99.90
31369;DHT22;18004;48.416;10.066;2023-03-03T03:18:03;2.30;99.90
31369;DHT22;18004;48.416;10.066;2023-03-03T03:20:29;2.30;99.90
31369;DHT22;18004;48.416;10.066;2023-03-03T03:22:55;2.30;99.90
31369;DHT22;18004;48.416;10.066;2023-03-03T03:25:20;2.30;99.90
31369;DHT22;18004;48.416;10.066;2023-03-03T03:27:46;2.30;99.90
31369;DHT22;18004;48.416;10.066;2023-03-03T03:30:12;2.30;99.90
31369;DHT22;18004;48.416;10.066;2023-03-03T03:32:39;2.30;99.90
31369;DHT22;18004;48.416;10.066;2023-03-03T03:35:05;2.30;99.90
31369;DHT22;18004;48.416;10.066;2023-03-03T03:37:30;2.30;99.90
31369;DHT22;18004;48.416;10.066;2023-03-03T03:39:56;2.30;99.90
31369;DHT22;18004;48.416;10.066;2023-03-03T03:42:22;2.20;99.90
31369;DHT22;18004;48.416;10.066;2023-03-03T03:44:48;2.20;99.90
31369;DHT22;18004;48.416;10.066;2023-03-03T03:47:15;2.10;99.90
31369;DHT22;18004;48.416;10.066;2023-03-03T03:49:41;2.20;99.90
31369;DHT22;18004;48.416;10.066;2023-03-03T03:52:06;2.20;99.90
31369;DHT22;18004;48.416;10.066;2023-03-03T03:54:32;2.20;99.90
31369;DHT22;18004;48.416;10.066;2023-03-03T03:56:59;2.20;99.90
31369;DHT22;18004;48.416;10.066;2023-03-03T03:59:24;2.20;99.90
31369;DHT22;18004;48.416;10.066;2023-03-03T04:01:50;2.20;99.90
31369;DHT22;18004;48.416;10.066;2023-03-03T04:04:16;2.20;99.90
31369;DHT22;18004;48.416;10.066;2023-03-03T04:06:42;2.10;99.90
31369;DHT22;18004;48.416;10.066;2023-03-03T04:09:08;2.20;99.90
31369;DHT22;18004;48.416;10.066;2023-03-03T04:11:33;2.20;99.90
31369;DHT22;18004;48.416;10.066;2023-03-03T04:13:59;2.20;99.90
31369;DHT22;18004;48.416;10.066;2023-03-03T04:16:25;2.20;99.90
31369;DHT22;18004;48.416;10.066;2023-03-03T04:18:50;2.30;99.90
31369;DHT22;18004;48.416;10.066;2023-03-03T04:21:16;2.30;99.90
31369;DHT22;18004;48.416;10.066;2023-03-03T04:23:42;2.30;99.90
31369;DHT22;18004;48.416;10.066;2023-03-03T04:26:08;2.30;99.90
31369;DHT22;18004;48.416;10.066;2023-03-03T04:28:35;2.30;99.90
31369;DHT22;18004;48.416;10.066;2023-03-03T04:31:00;2.30;99.90
31369;DHT22;18004;48.416;10.066;2023-03-03T04:33:26;2.30;99.90
31369;DHT22;18004;48.416;10.066;2023-03-03T04:35:52;2.20;99.90
31369;DHT22;18004;48.416;10.066;2023-03-03T04:38:18;2.30;99.90
31369;DHT22;18004;48.416;10.066;2023-03-03T04:40:44;2.30;99.90
31369;DHT22;18004;48.416;10.066;2023-03-03T04:43:10;2.20;99.90
31369;DHT22;18004;48.416;10.066;2023-03-03T04:45:36;2.30;99.90
31369;DHT22;18004;48.416;10.066;2023-03-03T04:48:02;2.30;99.90
31369;DHT22;18004;48.416;10.066;2023-03-03T04:50:28;2.30;99.90
31369;DHT22;18004;48.416;10.066;2023-03-03T04:52:54;2.30;99.90
31369;DHT22;18004;48.416;10.066;2023-03-03T04:55:19;2.30;99.90
31369;DHT22;18004;48.416;10.066;2023-03-03T04:57:45;2.30;99.90
31369;DHT22;18004;48.416;10.066;2023-03-03T05:00:12;2.20;99.90
31369;DHT22;18004;48.416;10.066;2023-03-03T05:02:39;2.30;99.90
31369;DHT22;18004;48.416;10.066;2023-03-03T05:05:10;2.30;99.90
31369;DHT22;18004;48.416;10.066;2023-03-03T05:07:36;2.30;99.90
31369;DHT22;18004;48.416;10.066;2023-03-03T05:10:01;2.30;99.90
31369;DHT22;18004;48.416;10.066;2023-03-03T05:12:27;2.30;99.90
31369;DHT22;18004;48.416;10.066;2023-03-03T05:14:53;2.30;99.90
31369;DHT22;18004;48.416;10.066;2023-03-03T05:17:19;2.30;99.90
31369;DHT22;18004;48.416;10.066;2023-03-03T05:19:44;2.40;99.90
31369;DHT22;18004;48.416;10.066;2023-03-03T05:22:10;2.40;99.90
31369;DHT22;18004;48.416;10.066;2023-03-03T05:24:36;2.40;99.90
31369;DHT22;18004;48.416;10.066;2023-03-03T05:27:01;2.40;99.90
31369;DHT22;18004;48.416;10.066;2023-03-03T05:29:28;2.40;99.90
31369;DHT22;18004;48.416;10.066;2023-03-03T05:31:56;2.40;99.90
31369;DHT22;18004;48.416;10.066;2023-03-03T05:34:23;2.40;99.90
31369;DHT22;18004;48.416;10.066;2023-03-03T05:36:48;2.40;99.90
31369;DHT22;18004;48.416;10.066;2023-03-03T05:39:14;2.40;99.90
31369;DHT22;18004;48.416;10.066;2023-03-03T05:41:40;2.40;99.90
31369;DHT22;18004;48.416;10.066;2023-03-03T05:44:06;2.40;99.90
31369;DHT22;18004;48.416;10.066;2023-03-03T05:46:32;2.50;99.90
31369;DHT22;18004;48.416;10.066;2023-03-03T05:48:58;2.50;99.90
31369;DHT22;18004;48.416;10.066;2023-03-03T05:51:23;2.40;99.90
31369;DHT22;18004;48.416;10.066;2023-03-03T05:53:49;2.40;99.90
31369;DHT22;18004;48.416;10.066;2023-03-03T05:56:15;2.40;99.90
31369;DHT22;18004;48.416;10.066;2023-03-03T05:58:41;2.40;99.90
31369;DHT22;18004;48.416;10.066;2023-03-03T06:01:07;2.40;99.90
31369;DHT22;18004;48.416;10.066;2023-03-03T06:03:33;2.40;99.90
31369;DHT22;18004;48.416;10.066;2023-03-03T06:05:59;2.50;99.90
31369;DHT22;18004;48.416;10.066;2023-03-03T06:08:24;2.50;99.90
31369;DHT22;18004;48.416;10.066;2023-03-03T06:10:50;2.40;99.90
31369;DHT22;18004;48.416;10.066;2023-03-03T06:13:16;2.40;99.90
31369;DHT22;18004;48.416;10.066;2023-03-03T06:15:42;2.40;99.90
31369;DHT22;18004;48.416;10.066;2023-03-03T06:18:08;2.40;99.90
31369;DHT22;18004;48.416;10.066;2023-03-03T06:20:35;2.40;99.90
31369;DHT22;18004;48.416;10.066;2023-03-03T06:23:01;2.40;99.90
31369;DHT22;18004;48.416;10.066;2023-03-03T06:25:27;2.40;99.90
31369;DHT22;18004;48.416;10.066;2023-03-03T06:27:53;2.40;99.90
31369;DHT22;18004;48.416;10.066;2023-03-03T06:30:19;2.40;99.90
31369;DHT22;18004;48.416;10.066;2023-03-03T06:32:45;2.40;99.90
31369;DHT22;18004;48.416;10.066;2023-03-03T06:35:11;2.40;99.90
31369;DHT22;18004;48.416;10.066;2023-03-03T06:37:37;2.40;99.90
31369;DHT22;18004;48.416;10.066;2023-03-03T06:40:04;2.40;99.90
31369;DHT22;18004;48.416;10.066;2023-03-03T06:42:30;2.40;99.90
31369;DHT22;18004;48.416;10.066;2023-03-03T06:44:56;2.40;99.90
31369;DHT22;18004;48.416;10.066;2023-03-03T06:47:21;2.50;99.90
31369;DHT22;18004;48.416;10.066;2023-03-03T06:49:47;2.50;99.90
31369;DHT22;18004;48.416;10.066;2023-03-03T06:52:22;2.50;99.90
31369;DHT22;18004;48.416;10.066;2023-03-03T06:54:49;2.50;99.90
31369;DHT22;18004;48.416;10.066;2023-03-03T06:57:30;2.60;99.90
31369;DHT22;18004;48.416;10.066;2023-03-03T07:00:23;2.50;99.90
31369;DHT22;18004;48.416;10.066;2023-03-03T07:03:15;2.50;99.90
31369;DHT22;18004;48.416;10.066;2023-03-03T07:05:41;2.50;99.90
31369;DHT22;18004;48.416;10.066;2023-03-03T07:08:16;2.50;99.90
31369;DHT22;18004;48.416;10.066;2023-03-03T07:10:43;2.60;99.90
31369;DHT22;18004;48.416;10.066;2023-03-03T07:13:27;2.50;99.90
31369;DHT22;18004;48.416;10.066;2023-03-03T07:15:55;2.50;99.90
31369;DHT22;18004;48.416;10.066;2023-03-03T07:18:38;2.50;99.90
31369;DHT22;18004;48.416;10.066;2023-03-03T07:23:47;2.50;99.90
31369;DHT22;18004;48.416;10.066;2023-03-03T07:26:33;2.50;99.90
31369;DHT22;18004;48.416;10.066;2023-03-03T07:28:59;2.50;99.90
31369;DHT22;18004;48.416;10.066;2023-03-03T07:31:35;2.50;99.90
31369;DHT22;18004;48.416;10.066;2023-03-03T07:34:20;2.50;99.90
31369;DHT22;18004;48.416;10.066;2023-03-03T07:36:57;2.50;99.90
31369;DHT22;18004;48.416;10.066;2023-03-03T07:44:44;2.70;99.90
31369;DHT22;18004;48.416;10.066;2023-03-03T07:47:27;2.70;99.90
31369;DHT22;18004;48.416;10.066;2023-03-03T07:49:56;2.70;99.90
31369;DHT22;18004;48.416;10.066;2023-03-03T07:55:34;2.80;99.90
31369;DHT22;18004;48.416;10.066;2023-03-03T08:03:11;2.90;99.90
31369;DHT22;18004;48.416;10.066;2023-03-03T08:05:42;2.90;99.90
31369;DHT22;18004;48.416;10.066;2023-03-03T08:08:32;2.80;99.90
31369;DHT22;18004;48.416;10.066;2023-03-03T08:11:01;2.80;99.90
31369;DHT22;18004;48.416;10.066;2023-03-03T08:13:36;2.90;99.90
31369;DHT22;18004;48.416;10.066;2023-03-03T08:18:48;3.10;99.90
31369;DHT22;18004;48.416;10.066;2023-03-03T08:21:22;3.10;99.90
31369;DHT22;18004;48.416;10.066;2023-03-03T08:23:49;3.20;99.90
31369;DHT22;18004;48.416;10.066;2023-03-03T08:26:18;3.30;99.90
31369;DHT22;18004;48.416;10.066;2023-03-03T08:28:45;3.30;99.90
31369;DHT22;18004;48.416;10.066;2023-03-03T08:31:11;3.30;99.90
31369;DHT22;18004;48.416;10.066;2023-03-03T08:33:38;3.40;99.90
31369;DHT22;18004;48.416;10.066;2023-03-03T08:36:04;3.50;99.90
31369;DHT22;18004;48.416;10.066;2023-03-03T08:38:30;3.50;99.90
31369;DHT22;18004;48.416;10.066;2023-03-03T08:40:56;3.50;99.90
31369;DHT22;18004;48.416;10.066;2023-03-03T08:43:22;3.60;99.90
31369;DHT22;18004;48.416;10.066;2023-03-03T08:45:51;3.60;99.90
31369;DHT22;18004;48.416;10.066;2023-03-03T08:48:17;3.60;99.90
31369;DHT22;18004;48.416;10.066;2023-03-03T08:50:43;3.70;99.90
31369;DHT22;18004;48.416;10.066;2023-03-03T08:53:11;3.80;99.90
31369;DHT22;18004;48.416;10.066;2023-03-03T08:55:37;3.90;99.90
31369;DHT22;18004;48.416;10.066;2023-03-03T08:58:03;3.90;99.90
31369;DHT22;18004;48.416;10.066;2023-03-03T09:00:28;3.90;99.90
31369;DHT22;18004;48.416;10.066;2023-03-03T09:02:54;3.90;99.90
31369;DHT22;18004;48.416;10.066;2023-03-03T09:05:21;4.00;99.90
31369;DHT22;18004;48.416;10.066;2023-03-03T09:07:48;4.10;99.90
31369;DHT22;18004;48.416;10.066;2023-03-03T09:10:19;4.10;99.90
31369;DHT22;18004;48.416;10.066;2023-03-03T09:12:50;4.20;99.90
31369;DHT22;18004;48.416;10.066;2023-03-03T09:15:31;4.30;99.20
31369;DHT22;18004;48.416;10.066;2023-03-03T09:18:19;4.30;98.50
31369;DHT22;18004;48.416;10.066;2023-03-03T09:20:54;4.30;98.20
31369;DHT22;18004;48.416;10.066;2023-03-03T09:23:40;4.40;98.10
31369;DHT22;18004;48.416;10.066;2023-03-03T09:31:43;4.60;96.70
31369;DHT22;18004;48.416;10.066;2023-03-03T09:36:46;4.70;96.70
31369;DHT22;18004;48.416;10.066;2023-03-03T09:39:20;4.70;94.90
31369;DHT22;18004;48.416;10.066;2023-03-03T09:42:15;4.80;95.40
31369;DHT22;18004;48.416;10.066;2023-03-03T09:52:39;4.80;94.20
31369;DHT22;18004;48.416;10.066;2023-03-03T10:23:23;5.60;92.10
31369;DHT22;18004;48.416;10.066;2023-03-03T10:37:40;6.00;85.40
31369;DHT22;18004;48.416;10.066;2023-03-03T10:53:30;6.00;74.60
31369;DHT22;18004;48.416;10.066;2023-03-03T11:07:02;6.10;68.40
31369;DHT22;18004;48.416;10.066;2023-03-03T11:12:20;6.30;71.30
31369;DHT22;18004;48.416;10.066;2023-03-03T11:20:53;6.20;62.30
31369;DHT22;18004;48.416;10.066;2023-03-03T11:29:06;6.60;63.30
31369;DHT22;18004;48.416;10.066;2023-03-03T11:34:49;6.60;60.90
31369;DHT22;18004;48.416;10.066;2023-03-03T11:39:56;6.60;59.10
31369;DHT22;18004;48.416;10.066;2023-03-03T11:42:35;6.80;61.20
31369;DHT22;18004;48.416;10.066;2023-03-03T11:45:17;6.70;60.20
31369;DHT22;18004;48.416;10.066;2023-03-03T11:48:00;6.80;60.80
31369;DHT22;18004;48.416;10.066;2023-03-03T11:50:36;6.90;60.50
31369;DHT22;18004;48.416;10.066;2023-03-03T12:04:48;6.70;57.20
31369;DHT22;18004;48.416;10.066;2023-03-03T12:12:41;6.80;56.30
31369;DHT22;18004;48.416;10.066;2023-03-03T12:15:29;7.10;54.70
31369;DHT22;18004;48.416;10.066;2023-03-03T12:20:48;7.40;52.40
31369;DHT22;18004;48.416;10.066;2023-03-03T12:23:33;7.40;48.90
31369;DHT22;18004;48.416;10.066;2023-03-03T12:32:17;7.70;45.40
31369;DHT22;18004;48.416;10.066;2023-03-03T12:40:27;7.70;42.80
31369;DHT22;18004;48.416;10.066;2023-03-03T12:43:18;7.60;39.40
31369;DHT22;18004;48.416;10.066;2023-03-03T12:48:41;7.70;38.90
31369;DHT22;18004;48.416;10.066;2023-03-03T12:54:13;7.90;37.80
31369;DHT22;18004;48.416;10.066;2023-03-03T12:56:57;7.90;38.30
31369;DHT22;18004;48.416;10.066;2023-03-03T12:59:30;8.10;35.80
31369;DHT22;18004;48.416;10.066;2023-03-03T13:05:10;8.20;39.90
31369;DHT22;18004;48.416;10.066;2023-03-03T13:07:54;8.20;34.40
31369;DHT22;18004;48.416;10.066;2023-03-03T13:10:50;8.40;38.50
31369;DHT22;18004;48.416;10.066;2023-03-03T13:15:59;8.60;34.20
31369;DHT22;18004;48.416;10.066;2023-03-03T13:18:55;8.50;31.40
31369;DHT22;18004;48.416;10.066;2023-03-03T13:26:34;8.60;30.00
31369;DHT22;18004;48.416;10.066;2023-03-03T13:29:12;8.70;32.10
31369;DHT22;18004;48.416;10.066;2023-03-03T13:31:46;9.00;33.50
31369;DHT22;18004;48.416;10.066;2023-03-03T13:37:03;9.10;31.30
31369;DHT22;18004;48.416;10.066;2023-03-03T13:39:37;9.00;30.10
31369;DHT22;18004;48.416;10.066;2023-03-03T13:44:49;9.20;26.40
31369;DHT22;18004;48.416;10.066;2023-03-03T13:47:23;9.30;30.40
31369;DHT22;18004;48.416;10.066;2023-03-03T13:52:50;9.40;30.50
31369;DHT22;18004;48.416;10.066;2023-03-03T13:55:28;9.40;30.50
31369;DHT22;18004;48.416;10.066;2023-03-03T14:05:37;9.10;27.40
31369;DHT22;18004;48.416;10.066;2023-03-03T14:16:49;9.30;27.30
31369;DHT22;18004;48.416;10.066;2023-03-03T14:27:34;9.20;25.40
31369;DHT22;18004;48.416;10.066;2023-03-03T14:30:26;9.30;25.50
31369;DHT22;18004;48.416;10.066;2023-03-03T14:35:29;9.00;27.00
31369;DHT22;18004;48.416;10.066;2023-03-03T14:43:42;9.60;29.60
31369;DHT22;18004;48.416;10.066;2023-03-03T14:48:58;9.80;26.60
31369;DHT22;18004;48.416;10.066;2023-03-03T14:51:39;9.80;24.60
31369;DHT22;18004;48.416;10.066;2023-03-03T14:54:24;9.80;25.40
31369;DHT22;18004;48.416;10.066;2023-03-03T14:57:05;9.80;24.10
31369;DHT22;18004;48.416;10.066;2023-03-03T14:59:32;9.70;23.90
31369;DHT22;18004;48.416;10.066;2023-03-03T15:04:46;9.30;26.50
31369;DHT22;18004;48.416;10.066;2023-03-03T15:09:50;9.70;27.60
31369;DHT22;18004;48.416;10.066;2023-03-03T15:12:24;9.90;27.30
31369;DHT22;18004;48.416;10.066;2023-03-03T15:14:52;9.80;22.80
31369;DHT22;18004;48.416;10.066;2023-03-03T15:17:36;9.80;25.30
31369;DHT22;18004;48.416;10.066;2023-03-03T15:20:29;9.80;23.60
31369;DHT22;18004;48.416;10.066;2023-03-03T15:25:46;9.70;24.70
31369;DHT22;18004;48.416;10.066;2023-03-03T15:37:05;9.70;26.30
31369;DHT22;18004;48.416;10.066;2023-03-03T15:40:00;9.80;28.20
31369;DHT22;18004;48.416;10.066;2023-03-03T15:45:47;9.90;26.20
31369;DHT22;18004;48.416;10.066;2023-03-03T15:48:28;10.00;26.40
31369;DHT22;18004;48.416;10.066;2023-03-03T15:53:49;9.70;24.40
31369;DHT22;18004;48.416;10.066;2023-03-03T15:56:56;9.70;24.80
31369;DHT22;18004;48.416;10.066;2023-03-03T15:59:48;9.60;22.90
31369;DHT22;18004;48.416;10.066;2023-03-03T16:10:46;9.50;30.50
31369;DHT22;18004;48.416;10.066;2023-03-03T16:13:35;9.50;30.20
31369;DHT22;18004;48.416;10.066;2023-03-03T16:19:10;9.50;27.50
31369;DHT22;18004;48.416;10.066;2023-03-03T16:28:05;9.20;29.70
31369;DHT22;18004;48.416;10.066;2023-03-03T16:31:01;9.10;29.40
31369;DHT22;18004;48.416;10.066;2023-03-03T16:33:38;9.10;30.20
31369;DHT22;18004;48.416;10.066;2023-03-03T16:38:52;8.80;31.40
31369;DHT22;18004;48.416;10.066;2023-03-03T17:06:52;8.10;44.20
31369;DHT22;18004;48.416;10.066;2023-03-03T17:12:15;8.00;46.10
31369;DHT22;18004;48.416;10.066;2023-03-03T17:15:33;7.90;46.90
31369;DHT22;18004;48.416;10.066;2023-03-03T17:23:23;7.50;46.20
31369;DHT22;18004;48.416;10.066;2023-03-03T17:31:25;7.10;50.80
31369;DHT22;18004;48.416;10.066;2023-03-03T17:34:41;7.10;52.20
31369;DHT22;18004;48.416;10.066;2023-03-03T17:36:54;7.10;54.60
31369;DHT22;18004;48.416;10.066;2023-03-03T17:39:31;6.90;54.50
31369;DHT22;18004;48.416;10.066;2023-03-03T17:42:21;6.90;54.50
31369;DHT22;18004;48.416;10.066;2023-03-03T18:01:31;6.00;61.10
31369;DHT22;18004;48.416;10.066;2023-03-03T18:09:43;5.80;65.30
31369;DHT22;18004;48.416;10.066;2023-03-03T18:12:21;5.80;64.80
31369;DHT22;18004;48.416;10.066;2023-03-03T18:15:14;5.90;65.60
31369;DHT22;18004;48.416;10.066;2023-03-03T18:25:57;6.00;61.00
31369;DHT22;18004;48.416;10.066;2023-03-03T18:28:45;6.10;61.50
31369;DHT22;18004;48.416;10.066;2023-03-03T18:31:25;6.10;58.80
31369;DHT22;18004;48.416;10.066;2023-03-03T18:34:06;5.90;57.90
31369;DHT22;18004;48.416;10.066;2023-03-03T18:39:04;5.80;60.70
31369;DHT22;18004;48.416;10.066;2023-03-03T18:44:55;5.70;62.20
31369;DHT22;18004;48.416;10.066;2023-03-03T18:50:38;5.70;62.70
31369;DHT22;18004;48.416;10.066;2023-03-03T18:53:15;5.60;60.60
31369;DHT22;18004;48.416;10.066;2023-03-03T18:55:47;5.40;60.30
31369;DHT22;18004;48.416;10.066;2023-03-03T19:00:54;5.20;65.20
31369;DHT22;18004;48.416;10.066;2023-03-03T19:05:51;5.10;65.90
31369;DHT22;18004;48.416;10.066;2023-03-03T19:16:52;4.90;69.30
31369;DHT22;18004;48.416;10.066;2023-03-03T19:19:21;4.90;68.80
31369;DHT22;18004;48.416;10.066;2023-03-03T19:21:50;4.90;69.00
31369;DHT22;18004;48.416;10.066;2023-03-03T19:24:31;4.70;69.40
31369;DHT22;18004;48.416;10.066;2023-03-03T19:29:49;4.70;72.80
31369;DHT22;18004;48.416;10.066;2023-03-03T19:32:43;4.60;72.00
31369;DHT22;18004;48.416;10.066;2023-03-03T19:38:10;4.60;71.50
31369;DHT22;18004;48.416;10.066;2023-03-03T19:48:49;4.30;74.30
31369;DHT22;18004;48.416;10.066;2023-03-03T19:51:43;4.40;74.40
31369;DHT22;18004;48.416;10.066;2023-03-03T20:00:40;4.20;74.60
31369;DHT22;18004;48.416;10.066;2023-03-03T20:09:03;4.00;75.20
31369;DHT22;18004;48.416;10.066;2023-03-03T20:11:48;4.00;78.40
31369;DHT22;18004;48.416;10.066;2023-03-03T20:14:44;3.90;78.50
31369;DHT22;18004;48.416;10.066;2023-03-03T20:19:49;3.90;81.60
31369;DHT22;18004;48.416;10.066;2023-03-03T20:25:13;3.90;81.50
31369;DHT22;18004;48.416;10.066;2023-03-03T20:36:16;3.60;80.40
31369;DHT22;18004;48.416;10.066;2023-03-03T20:39:04;3.50;83.80
31369;DHT22;18004;48.416;10.066;2023-03-03T20:41:39;3.50;83.80
31369;DHT22;18004;48.416;10.066;2023-03-03T20:44:10;3.40;83.30
31369;DHT22;18004;48.416;10.066;2023-03-03T20:46:46;3.40;83.80
31369;DHT22;18004;48.416;10.066;2023-03-03T20:49:24;3.40;84.60
31369;DHT22;18004;48.416;10.066;2023-03-03T20:54:35;3.20;83.60
31369;DHT22;18004;48.416;10.066;2023-03-03T20:57:05;3.20;86.50
31369;DHT22;18004;48.416;10.066;2023-03-03T21:05:18;3.10;87.00
31369;DHT22;18004;48.416;10.066;2023-03-03T21:08:00;3.00;88.50
31369;DHT22;18004;48.416;10.066;2023-03-03T21:10:31;2.90;88.20
31369;DHT22;18004;48.416;10.066;2023-03-03T21:13:26;2.90;88.90
31369;DHT22;18004;48.416;10.066;2023-03-03T21:16:01;2.90;90.30
31369;DHT22;18004;48.416;10.066;2023-03-03T21:18:28;2.90;90.60
31369;DHT22;18004;48.416;10.066;2023-03-03T21:20:53;2.80;90.80
31369;DHT22;18004;48.416;10.066;2023-03-03T21:23:19;2.80;90.40
31369;DHT22;18004;48.416;10.066;2023-03-03T21:25:50;2.80;90.50
31369;DHT22;18004;48.416;10.066;2023-03-03T21:28:29;2.80;91.00
31369;DHT22;18004;48.416;10.066;2023-03-03T21:36:07;2.70;92.30
31369;DHT22;18004;48.416;10.066;2023-03-03T21:38:35;2.60;92.60
31369;DHT22;18004;48.416;10.066;2023-03-03T21:41:02;2.60;92.70
31369;DHT22;18004;48.416;10.066;2023-03-03T21:43:39;2.50;92.40
31369;DHT22;18004;48.416;10.066;2023-03-03T21:46:05;2.50;92.80
31369;DHT22;18004;48.416;10.066;2023-03-03T21:48:31;2.50;93.30
31369;DHT22;18004;48.416;10.066;2023-03-03T21:50:57;2.40;93.30
31369;DHT22;18004;48.416;10.066;2023-03-03T21:53:23;2.40;93.10
31369;DHT22;18004;48.416;10.066;2023-03-03T21:55:52;2.30;93.20
31369;DHT22;18004;48.416;10.066;2023-03-03T21:58:18;2.30;93.20
31369;DHT22;18004;48.416;10.066;2023-03-03T22:00:44;2.20;93.30
31369;DHT22;18004;48.416;10.066;2023-03-03T22:03:11;2.20;93.60
31369;DHT22;18004;48.416;10.066;2023-03-03T22:05:38;2.10;93.80
31369;DHT22;18004;48.416;10.066;2023-03-03T22:08:05;2.10;93.90
31369;DHT22;18004;48.416;10.066;2023-03-03T22:10:31;2.00;93.60
31369;DHT22;18004;48.416;10.066;2023-03-03T22:12:56;2.00;93.60
31369;DHT22;18004;48.416;10.066;2023-03-03T22:15:22;1.90;93.40
31369;DHT22;18004;48.416;10.066;2023-03-03T22:17:48;1.80;93.50
31369;DHT22;18004;48.416;10.066;2023-03-03T22:20:14;1.80;93.40
31369;DHT22;18004;48.416;10.066;2023-03-03T22:22:40;1.80;93.80
31369;DHT22;18004;48.416;10.066;2023-03-03T22:25:07;1.70;93.70
31369;DHT22;18004;48.416;10.066;2023-03-03T22:27:33;1.70;94.10
31369;DHT22;18004;48.416;10.066;2023-03-03T22:29:59;1.70;94.30
31369;DHT22;18004;48.416;10.066;2023-03-03T22:32:25;1.60;94.40
31369;DHT22;18004;48.416;10.066;2023-03-03T22:34:51;1.50;95.50
31369;DHT22;18004;48.416;10.066;2023-03-03T22:37:17;1.50;96.10
31369;DHT22;18004;48.416;10.066;2023-03-03T22:39:43;1.60;96.50
31369;DHT22;18004;48.416;10.066;2023-03-03T22:42:08;1.50;95.80
31369;DHT22;18004;48.416;10.066;2023-03-03T22:44:35;1.50;96.40
31369;DHT22;18004;48.416;10.066;2023-03-03T22:47:02;1.50;96.70
31369;DHT22;18004;48.416;10.066;2023-03-03T22:49:28;1.50;96.90
31369;DHT22;18004;48.416;10.066;2023-03-03T22:51:54;1.50;96.90
31369;DHT22;18004;48.416;10.066;2023-03-03T22:54:23;1.40;97.10
31369;DHT22;18004;48.416;10.066;2023-03-03T22:56:49;1.30;97.10
31369;DHT22;18004;48.416;10.066;2023-03-03T22:59:16;1.20;97.50